Grand Mound, Iowa
Current Conditions -  °F | °C
As of 9:52 PM on Tuesday 21 Oct 2014 (Local Time) from KDVN Reporting Station
Clear Clear  
Wind Chill: 38°   Ceiling: Unl
Heat Index: 43°   Visibility: 10mi
Dew Point: 36°   Wind: 8mph
Humidity: 76%   Direction: 90°E
Pressure: 30.25"   Gusts: NA
Location:  41.82°N, 90.65°W
Report Text: KDVN 220252Z AUTO 09007KT 10SM CLR 06/02 A3025 RMK AO2 SLP248 T00610022 52016 TSNO
Loading
Personal Weather Stations






























Interactive Weather Map
Tropical Storm Tracking
New forecast layout! Learn more

10-Day Weather Forecast

Advertisements
Track Severe Weather on mobile